Terminal Aerodrome Forecast
Issued by NWS

Home | Current Version | Previous Version | Text Only | Print | Product List | Glossary On
Versions: 1 2 3 4 5 6 7 8 9 10 11 12 13 14
000
FTUS44 KLZK 300500
TAFHOT
TAF
KHOT 300538Z 3006/0106 26004KT P6SM SCT120
     FM300900 26003KT P6SM SCT250
     FM301400 27007KT P6SM SCT050
     FM010100 24003KT P6SM SCT250=

USA.gov is the U.S. government's official web portal to all federal, state and local government web resources and services.